sensor_id;sensor_type;location;lat;lon;timestamp;P1;durP1;ratioP1;P2;durP2;ratioP2
14933;SDS011;7560;51.364;12.384;2024-01-30T00:03:30;8.05;;;4.40;;
14933;SDS011;7560;51.364;12.384;2024-01-30T00:08:32;6.85;;;3.95;;
14933;SDS011;7560;51.364;12.384;2024-01-30T00:13:34;6.30;;;4.22;;
14933;SDS011;7560;51.364;12.384;2024-01-30T00:18:36;7.32;;;4.00;;
14933;SDS011;7560;51.364;12.384;2024-01-30T00:23:38;7.25;;;4.28;;
14933;SDS011;7560;51.364;12.384;2024-01-30T00:28:39;7.90;;;4.18;;
14933;SDS011;7560;51.364;12.384;2024-01-30T00:33:42;6.60;;;4.28;;
14933;SDS011;7560;51.364;12.384;2024-01-30T00:38:44;7.63;;;4.43;;
14933;SDS011;7560;51.364;12.384;2024-01-30T00:43:45;8.20;;;4.43;;
14933;SDS011;7560;51.364;12.384;2024-01-30T00:48:47;6.22;;;3.83;;
14933;SDS011;7560;51.364;12.384;2024-01-30T00:53:49;8.50;;;4.40;;
14933;SDS011;7560;51.364;12.384;2024-01-30T00:58:51;6.22;;;4.00;;
14933;SDS011;7560;51.364;12.384;2024-01-30T01:03:53;5.93;;;3.90;;
14933;SDS011;7560;51.364;12.384;2024-01-30T01:08:55;5.80;;;3.65;;
14933;SDS011;7560;51.364;12.384;2024-01-30T01:13:56;7.00;;;3.72;;
14933;SDS011;7560;51.364;12.384;2024-01-30T01:18:59;5.85;;;3.83;;
14933;SDS011;7560;51.364;12.384;2024-01-30T01:24:01;6.05;;;3.80;;
14933;SDS011;7560;51.364;12.384;2024-01-30T01:29:03;7.28;;;3.95;;
14933;SDS011;7560;51.364;12.384;2024-01-30T01:34:11;6.07;;;3.95;;
14933;SDS011;7560;51.364;12.384;2024-01-30T01:39:14;5.90;;;3.67;;
14933;SDS011;7560;51.364;12.384;2024-01-30T01:44:16;6.60;;;3.97;;
14933;SDS011;7560;51.364;12.384;2024-01-30T01:49:19;6.03;;;3.47;;
14933;SDS011;7560;51.364;12.384;2024-01-30T01:54:21;6.22;;;3.67;;
14933;SDS011;7560;51.364;12.384;2024-01-30T01:59:24;5.35;;;3.38;;
14933;SDS011;7560;51.364;12.384;2024-01-30T02:04:26;5.15;;;3.20;;
14933;SDS011;7560;51.364;12.384;2024-01-30T02:09:28;8.38;;;3.80;;
14933;SDS011;7560;51.364;12.384;2024-01-30T02:14:30;6.15;;;3.63;;
14933;SDS011;7560;51.364;12.384;2024-01-30T02:19:32;7.00;;;3.78;;
14933;SDS011;7560;51.364;12.384;2024-01-30T02:24:34;7.25;;;3.95;;
14933;SDS011;7560;51.364;12.384;2024-01-30T02:29:35;6.00;;;3.58;;
14933;SDS011;7560;51.364;12.384;2024-01-30T02:34:37;5.28;;;3.40;;
14933;SDS011;7560;51.364;12.384;2024-01-30T02:39:39;5.38;;;3.63;;
14933;SDS011;7560;51.364;12.384;2024-01-30T02:44:41;7.57;;;3.78;;
14933;SDS011;7560;51.364;12.384;2024-01-30T02:49:43;5.95;;;3.65;;
14933;SDS011;7560;51.364;12.384;2024-01-30T02:54:45;5.05;;;3.65;;
14933;SDS011;7560;51.364;12.384;2024-01-30T02:59:46;7.70;;;4.00;;
14933;SDS011;7560;51.364;12.384;2024-01-30T03:04:48;5.65;;;3.65;;
14933;SDS011;7560;51.364;12.384;2024-01-30T03:09:50;6.65;;;3.85;;
14933;SDS011;7560;51.364;12.384;2024-01-30T03:14:52;6.82;;;3.67;;
14933;SDS011;7560;51.364;12.384;2024-01-30T03:19:54;7.25;;;3.83;;
14933;SDS011;7560;51.364;12.384;2024-01-30T03:24:55;7.18;;;4.65;;
14933;SDS011;7560;51.364;12.384;2024-01-30T03:29:57;6.57;;;4.20;;
14933;SDS011;7560;51.364;12.384;2024-01-30T03:34:59;6.07;;;3.80;;
14933;SDS011;7560;51.364;12.384;2024-01-30T03:40:02;5.53;;;3.50;;
14933;SDS011;7560;51.364;12.384;2024-01-30T03:45:05;9.40;;;4.05;;
14933;SDS011;7560;51.364;12.384;2024-01-30T03:50:07;8.40;;;4.35;;
14933;SDS011;7560;51.364;12.384;2024-01-30T03:55:09;7.10;;;4.30;;
14933;SDS011;7560;51.364;12.384;2024-01-30T04:00:11;7.60;;;4.30;;
14933;SDS011;7560;51.364;12.384;2024-01-30T04:05:13;6.72;;;4.32;;
14933;SDS011;7560;51.364;12.384;2024-01-30T04:10:16;6.78;;;4.22;;
14933;SDS011;7560;51.364;12.384;2024-01-30T04:15:17;13.57;;;4.88;;
14933;SDS011;7560;51.364;12.384;2024-01-30T04:20:19;9.77;;;4.68;;
14933;SDS011;7560;51.364;12.384;2024-01-30T04:25:21;8.05;;;4.35;;
14933;SDS011;7560;51.364;12.384;2024-01-30T04:30:23;6.70;;;4.20;;
14933;SDS011;7560;51.364;12.384;2024-01-30T04:35:24;7.68;;;4.35;;
14933;SDS011;7560;51.364;12.384;2024-01-30T04:40:26;7.80;;;4.40;;
14933;SDS011;7560;51.364;12.384;2024-01-30T04:45:28;8.27;;;4.70;;
14933;SDS011;7560;51.364;12.384;2024-01-30T04:50:30;6.30;;;4.25;;
14933;SDS011;7560;51.364;12.384;2024-01-30T04:55:32;7.20;;;4.45;;
14933;SDS011;7560;51.364;12.384;2024-01-30T05:00:33;7.88;;;4.60;;
14933;SDS011;7560;51.364;12.384;2024-01-30T05:05:35;7.60;;;4.20;;
14933;SDS011;7560;51.364;12.384;2024-01-30T05:10:37;8.20;;;4.35;;
14933;SDS011;7560;51.364;12.384;2024-01-30T05:15:39;8.95;;;4.63;;
14933;SDS011;7560;51.364;12.384;2024-01-30T05:20:41;6.63;;;4.30;;
14933;SDS011;7560;51.364;12.384;2024-01-30T05:25:43;6.80;;;4.32;;
14933;SDS011;7560;51.364;12.384;2024-01-30T05:30:45;7.22;;;4.45;;
14933;SDS011;7560;51.364;12.384;2024-01-30T05:35:47;8.07;;;4.85;;
14933;SDS011;7560;51.364;12.384;2024-01-30T05:40:49;10.35;;;4.75;;
14933;SDS011;7560;51.364;12.384;2024-01-30T05:45:51;7.05;;;4.30;;
14933;SDS011;7560;51.364;12.384;2024-01-30T05:50:53;7.13;;;4.30;;
14933;SDS011;7560;51.364;12.384;2024-01-30T05:55:56;7.57;;;4.32;;
14933;SDS011;7560;51.364;12.384;2024-01-30T06:00:58;8.05;;;4.18;;
14933;SDS011;7560;51.364;12.384;2024-01-30T06:06:00;9.43;;;5.38;;
14933;SDS011;7560;51.364;12.384;2024-01-30T06:11:02;9.38;;;6.15;;
14933;SDS011;7560;51.364;12.384;2024-01-30T06:16:03;9.23;;;5.38;;
14933;SDS011;7560;51.364;12.384;2024-01-30T06:21:06;10.52;;;5.75;;
14933;SDS011;7560;51.364;12.384;2024-01-30T06:26:11;10.52;;;5.47;;
14933;SDS011;7560;51.364;12.384;2024-01-30T06:31:12;6.78;;;4.65;;
14933;SDS011;7560;51.364;12.384;2024-01-30T06:36:14;8.38;;;4.70;;
14933;SDS011;7560;51.364;12.384;2024-01-30T06:41:16;10.85;;;5.00;;
14933;SDS011;7560;51.364;12.384;2024-01-30T06:46:18;12.52;;;5.30;;
14933;SDS011;7560;51.364;12.384;2024-01-30T06:51:20;10.00;;;4.85;;
14933;SDS011;7560;51.364;12.384;2024-01-30T06:56:22;11.70;;;5.13;;
14933;SDS011;7560;51.364;12.384;2024-01-30T07:01:27;9.23;;;5.20;;
14933;SDS011;7560;51.364;12.384;2024-01-30T07:06:30;7.18;;;4.78;;
14933;SDS011;7560;51.364;12.384;2024-01-30T07:11:32;8.45;;;5.15;;
14933;SDS011;7560;51.364;12.384;2024-01-30T07:16:34;8.45;;;5.25;;
14933;SDS011;7560;51.364;12.384;2024-01-30T07:21:36;9.95;;;5.65;;
14933;SDS011;7560;51.364;12.384;2024-01-30T07:26:38;10.38;;;4.90;;
14933;SDS011;7560;51.364;12.384;2024-01-30T07:31:40;8.25;;;4.90;;
14933;SDS011;7560;51.364;12.384;2024-01-30T07:36:42;11.40;;;4.75;;
14933;SDS011;7560;51.364;12.384;2024-01-30T07:41:44;11.23;;;5.30;;
14933;SDS011;7560;51.364;12.384;2024-01-30T07:46:45;10.32;;;5.43;;
14933;SDS011;7560;51.364;12.384;2024-01-30T07:51:47;7.72;;;4.68;;
14933;SDS011;7560;51.364;12.384;2024-01-30T07:56:49;9.20;;;5.38;;
14933;SDS011;7560;51.364;12.384;2024-01-30T08:01:51;9.80;;;5.13;;
14933;SDS011;7560;51.364;12.384;2024-01-30T08:06:53;9.77;;;4.90;;
14933;SDS011;7560;51.364;12.384;2024-01-30T08:11:55;9.52;;;5.25;;
14933;SDS011;7560;51.364;12.384;2024-01-30T08:16:56;9.60;;;5.03;;
14933;SDS011;7560;51.364;12.384;2024-01-30T08:21:58;8.85;;;5.43;;
14933;SDS011;7560;51.364;12.384;2024-01-30T08:27:00;6.90;;;4.40;;
14933;SDS011;7560;51.364;12.384;2024-01-30T08:32:06;7.63;;;4.95;;
14933;SDS011;7560;51.364;12.384;2024-01-30T08:37:08;9.45;;;5.00;;
14933;SDS011;7560;51.364;12.384;2024-01-30T08:42:10;9.88;;;4.80;;
14933;SDS011;7560;51.364;12.384;2024-01-30T08:47:12;8.13;;;4.97;;
14933;SDS011;7560;51.364;12.384;2024-01-30T08:52:14;8.60;;;5.00;;
14933;SDS011;7560;51.364;12.384;2024-01-30T08:57:16;11.15;;;4.82;;
14933;SDS011;7560;51.364;12.384;2024-01-30T09:02:18;8.57;;;4.55;;
14933;SDS011;7560;51.364;12.384;2024-01-30T09:07:20;10.88;;;5.90;;
14933;SDS011;7560;51.364;12.384;2024-01-30T09:12:22;10.80;;;5.63;;
14933;SDS011;7560;51.364;12.384;2024-01-30T09:17:25;8.75;;;5.05;;
14933;SDS011;7560;51.364;12.384;2024-01-30T09:22:26;8.60;;;5.03;;
14933;SDS011;7560;51.364;12.384;2024-01-30T09:27:28;12.15;;;5.90;;
14933;SDS011;7560;51.364;12.384;2024-01-30T09:32:30;9.40;;;5.22;;
14933;SDS011;7560;51.364;12.384;2024-01-30T09:37:32;9.73;;;5.45;;
14933;SDS011;7560;51.364;12.384;2024-01-30T09:42:34;13.75;;;6.07;;
14933;SDS011;7560;51.364;12.384;2024-01-30T09:47:43;9.85;;;5.55;;
14933;SDS011;7560;51.364;12.384;2024-01-30T09:52:46;9.38;;;5.28;;
14933;SDS011;7560;51.364;12.384;2024-01-30T09:57:49;10.55;;;5.90;;
14933;SDS011;7560;51.364;12.384;2024-01-30T10:02:51;10.13;;;5.63;;
14933;SDS011;7560;51.364;12.384;2024-01-30T10:07:54;8.15;;;5.75;;
14933;SDS011;7560;51.364;12.384;2024-01-30T10:12:57;10.05;;;5.28;;
14933;SDS011;7560;51.364;12.384;2024-01-30T10:18:01;9.70;;;5.68;;
14933;SDS011;7560;51.364;12.384;2024-01-30T10:23:03;9.07;;;5.32;;
14933;SDS011;7560;51.364;12.384;2024-01-30T10:28:05;12.82;;;6.22;;
14933;SDS011;7560;51.364;12.384;2024-01-30T10:33:07;7.82;;;5.43;;
14933;SDS011;7560;51.364;12.384;2024-01-30T10:38:09;9.05;;;5.82;;
14933;SDS011;7560;51.364;12.384;2024-01-30T10:43:14;10.10;;;5.72;;
14933;SDS011;7560;51.364;12.384;2024-01-30T10:48:18;6.82;;;4.95;;
14933;SDS011;7560;51.364;12.384;2024-01-30T10:53:26;9.10;;;5.80;;
14933;SDS011;7560;51.364;12.384;2024-01-30T10:58:32;11.50;;;6.60;;
14933;SDS011;7560;51.364;12.384;2024-01-30T11:03:34;11.40;;;6.45;;
14933;SDS011;7560;51.364;12.384;2024-01-30T11:08:37;10.65;;;6.60;;
14933;SDS011;7560;51.364;12.384;2024-01-30T11:13:39;10.32;;;5.63;;
14933;SDS011;7560;51.364;12.384;2024-01-30T11:18:42;10.13;;;6.10;;
14933;SDS011;7560;51.364;12.384;2024-01-30T11:24:44;12.35;;;6.32;;
14933;SDS011;7560;51.364;12.384;2024-01-30T11:29:49;8.57;;;5.90;;
14933;SDS011;7560;51.364;12.384;2024-01-30T11:34:52;7.90;;;5.20;;
14933;SDS011;7560;51.364;12.384;2024-01-30T11:39:55;11.80;;;6.93;;
14933;SDS011;7560;51.364;12.384;2024-01-30T11:44:59;11.18;;;6.03;;
14933;SDS011;7560;51.364;12.384;2024-01-30T11:50:04;9.90;;;5.90;;
14933;SDS011;7560;51.364;12.384;2024-01-30T11:55:07;8.15;;;6.30;;
14933;SDS011;7560;51.364;12.384;2024-01-30T12:00:14;8.73;;;5.95;;
14933;SDS011;7560;51.364;12.384;2024-01-30T12:05:19;10.07;;;6.28;;
14933;SDS011;7560;51.364;12.384;2024-01-30T12:10:21;10.68;;;7.00;;
14933;SDS011;7560;51.364;12.384;2024-01-30T12:15:23;8.85;;;5.40;;
14933;SDS011;7560;51.364;12.384;2024-01-30T12:20:26;9.63;;;6.68;;
14933;SDS011;7560;51.364;12.384;2024-01-30T12:25:28;8.68;;;5.95;;
14933;SDS011;7560;51.364;12.384;2024-01-30T12:30:30;10.20;;;6.13;;
14933;SDS011;7560;51.364;12.384;2024-01-30T12:35:32;11.63;;;6.43;;
14933;SDS011;7560;51.364;12.384;2024-01-30T12:40:35;8.30;;;5.70;;
14933;SDS011;7560;51.364;12.384;2024-01-30T12:45:41;9.43;;;6.20;;
14933;SDS011;7560;51.364;12.384;2024-01-30T12:50:42;8.40;;;5.68;;
14933;SDS011;7560;51.364;12.384;2024-01-30T12:55:44;9.73;;;6.03;;
14933;SDS011;7560;51.364;12.384;2024-01-30T13:00:46;11.18;;;6.50;;
14933;SDS011;7560;51.364;12.384;2024-01-30T13:05:48;9.13;;;5.50;;
14933;SDS011;7560;51.364;12.384;2024-01-30T13:10:50;9.68;;;5.57;;
14933;SDS011;7560;51.364;12.384;2024-01-30T13:15:52;9.75;;;5.82;;
14933;SDS011;7560;51.364;12.384;2024-01-30T13:20:54;10.20;;;5.43;;
14933;SDS011;7560;51.364;12.384;2024-01-30T13:25:56;8.27;;;5.72;;
14933;SDS011;7560;51.364;12.384;2024-01-30T13:30:59;9.00;;;6.00;;
14933;SDS011;7560;51.364;12.384;2024-01-30T13:36:01;9.45;;;5.85;;
14933;SDS011;7560;51.364;12.384;2024-01-30T13:41:03;13.77;;;6.18;;
14933;SDS011;7560;51.364;12.384;2024-01-30T13:46:05;9.13;;;5.85;;
14933;SDS011;7560;51.364;12.384;2024-01-30T13:51:07;11.15;;;6.72;;
14933;SDS011;7560;51.364;12.384;2024-01-30T13:56:09;8.63;;;5.97;;
14933;SDS011;7560;51.364;12.384;2024-01-30T14:01:11;11.23;;;6.63;;
14933;SDS011;7560;51.364;12.384;2024-01-30T14:06:13;10.27;;;6.55;;
14933;SDS011;7560;51.364;12.384;2024-01-30T14:11:15;10.32;;;6.82;;
14933;SDS011;7560;51.364;12.384;2024-01-30T14:16:17;10.60;;;6.50;;
14933;SDS011;7560;51.364;12.384;2024-01-30T14:21:18;8.88;;;6.10;;
14933;SDS011;7560;51.364;12.384;2024-01-30T14:26:20;11.18;;;6.13;;
14933;SDS011;7560;51.364;12.384;2024-01-30T14:31:22;10.93;;;6.38;;
14933;SDS011;7560;51.364;12.384;2024-01-30T14:36:25;8.98;;;6.15;;
14933;SDS011;7560;51.364;12.384;2024-01-30T14:41:29;11.13;;;6.13;;
14933;SDS011;7560;51.364;12.384;2024-01-30T14:46:31;11.88;;;6.10;;
14933;SDS011;7560;51.364;12.384;2024-01-30T14:51:33;9.23;;;6.15;;
14933;SDS011;7560;51.364;12.384;2024-01-30T14:56:35;10.27;;;6.38;;
14933;SDS011;7560;51.364;12.384;2024-01-30T15:01:37;8.60;;;5.65;;
14933;SDS011;7560;51.364;12.384;2024-01-30T15:06:39;11.27;;;6.25;;
14933;SDS011;7560;51.364;12.384;2024-01-30T15:11:46;11.65;;;6.60;;
14933;SDS011;7560;51.364;12.384;2024-01-30T15:16:48;15.05;;;9.48;;
14933;SDS011;7560;51.364;12.384;2024-01-30T15:21:50;8.52;;;5.78;;
14933;SDS011;7560;51.364;12.384;2024-01-30T15:26:52;8.55;;;6.45;;
14933;SDS011;7560;51.364;12.384;2024-01-30T15:31:54;12.02;;;7.15;;
14933;SDS011;7560;51.364;12.384;2024-01-30T15:36:55;10.25;;;6.50;;
14933;SDS011;7560;51.364;12.384;2024-01-30T15:41:57;11.35;;;6.82;;
14933;SDS011;7560;51.364;12.384;2024-01-30T15:47:02;8.82;;;5.82;;
14933;SDS011;7560;51.364;12.384;2024-01-30T15:52:04;11.48;;;6.97;;
14933;SDS011;7560;51.364;12.384;2024-01-30T15:57:06;9.55;;;6.10;;
14933;SDS011;7560;51.364;12.384;2024-01-30T16:02:08;9.55;;;6.18;;
14933;SDS011;7560;51.364;12.384;2024-01-30T16:07:10;11.13;;;6.38;;
14933;SDS011;7560;51.364;12.384;2024-01-30T16:12:12;11.35;;;6.43;;
14933;SDS011;7560;51.364;12.384;2024-01-30T16:17:14;9.00;;;6.03;;
14933;SDS011;7560;51.364;12.384;2024-01-30T16:22:16;10.23;;;7.28;;
14933;SDS011;7560;51.364;12.384;2024-01-30T16:27:18;13.18;;;6.75;;
14933;SDS011;7560;51.364;12.384;2024-01-30T16:32:20;11.15;;;6.75;;
14933;SDS011;7560;51.364;12.384;2024-01-30T16:37:21;8.75;;;6.00;;
14933;SDS011;7560;51.364;12.384;2024-01-30T16:42:23;10.10;;;5.82;;
14933;SDS011;7560;51.364;12.384;2024-01-30T16:47:25;10.15;;;6.32;;
14933;SDS011;7560;51.364;12.384;2024-01-30T16:52:27;10.15;;;6.68;;
14933;SDS011;7560;51.364;12.384;2024-01-30T16:57:29;9.30;;;6.65;;
14933;SDS011;7560;51.364;12.384;2024-01-30T17:02:32;9.68;;;6.40;;
14933;SDS011;7560;51.364;12.384;2024-01-30T17:07:33;12.60;;;7.90;;
14933;SDS011;7560;51.364;12.384;2024-01-30T17:12:36;12.43;;;7.97;;
14933;SDS011;7560;51.364;12.384;2024-01-30T17:17:38;10.82;;;7.05;;
14933;SDS011;7560;51.364;12.384;2024-01-30T17:22:40;13.75;;;8.25;;
14933;SDS011;7560;51.364;12.384;2024-01-30T17:27:46;13.57;;;8.18;;
14933;SDS011;7560;51.364;12.384;2024-01-30T17:32:50;17.85;;;8.50;;
14933;SDS011;7560;51.364;12.384;2024-01-30T17:37:52;15.68;;;8.88;;
14933;SDS011;7560;51.364;12.384;2024-01-30T17:42:54;12.48;;;8.70;;
14933;SDS011;7560;51.364;12.384;2024-01-30T17:47:56;11.13;;;7.47;;
14933;SDS011;7560;51.364;12.384;2024-01-30T17:52:58;11.82;;;7.60;;
14933;SDS011;7560;51.364;12.384;2024-01-30T17:58:00;10.25;;;7.13;;
14933;SDS011;7560;51.364;12.384;2024-01-30T18:03:04;10.18;;;7.57;;
14933;SDS011;7560;51.364;12.384;2024-01-30T18:08:06;10.38;;;6.85;;
14933;SDS011;7560;51.364;12.384;2024-01-30T18:13:09;12.43;;;7.68;;
14933;SDS011;7560;51.364;12.384;2024-01-30T18:18:14;19.98;;;8.52;;
14933;SDS011;7560;51.364;12.384;2024-01-30T18:23:17;13.43;;;8.48;;
14933;SDS011;7560;51.364;12.384;2024-01-30T18:28:19;13.25;;;7.45;;
14933;SDS011;7560;51.364;12.384;2024-01-30T18:33:21;11.18;;;7.30;;
14933;SDS011;7560;51.364;12.384;2024-01-30T18:38:23;11.40;;;7.32;;
14933;SDS011;7560;51.364;12.384;2024-01-30T18:43:25;10.38;;;7.07;;
14933;SDS011;7560;51.364;12.384;2024-01-30T18:48:27;10.90;;;8.07;;
14933;SDS011;7560;51.364;12.384;2024-01-30T18:53:28;13.98;;;9.13;;
14933;SDS011;7560;51.364;12.384;2024-01-30T18:58:30;13.65;;;8.50;;
14933;SDS011;7560;51.364;12.384;2024-01-30T19:03:32;14.35;;;8.38;;
14933;SDS011;7560;51.364;12.384;2024-01-30T19:08:34;16.50;;;9.55;;
14933;SDS011;7560;51.364;12.384;2024-01-30T19:13:36;13.63;;;8.48;;
14933;SDS011;7560;51.364;12.384;2024-01-30T19:18:38;14.88;;;9.18;;
14933;SDS011;7560;51.364;12.384;2024-01-30T19:23:40;15.15;;;8.75;;
14933;SDS011;7560;51.364;12.384;2024-01-30T19:28:42;16.33;;;8.52;;
14933;SDS011;7560;51.364;12.384;2024-01-30T19:33:45;13.63;;;9.57;;
14933;SDS011;7560;51.364;12.384;2024-01-30T19:38:47;15.00;;;9.80;;
14933;SDS011;7560;51.364;12.384;2024-01-30T19:43:49;14.75;;;8.80;;
14933;SDS011;7560;51.364;12.384;2024-01-30T19:48:51;16.00;;;9.70;;
14933;SDS011;7560;51.364;12.384;2024-01-30T19:53:52;14.93;;;9.68;;
14933;SDS011;7560;51.364;12.384;2024-01-30T19:58:55;14.02;;;9.70;;
14933;SDS011;7560;51.364;12.384;2024-01-30T20:03:57;15.40;;;9.63;;
14933;SDS011;7560;51.364;12.384;2024-01-30T20:08:59;14.20;;;9.40;;
14933;SDS011;7560;51.364;12.384;2024-01-30T20:14:00;13.05;;;9.05;;
14933;SDS011;7560;51.364;12.384;2024-01-30T20:19:02;13.07;;;9.20;;
14933;SDS011;7560;51.364;12.384;2024-01-30T20:24:05;13.75;;;8.95;;
14933;SDS011;7560;51.364;12.384;2024-01-30T20:29:07;16.08;;;9.13;;
14933;SDS011;7560;51.364;12.384;2024-01-30T20:34:10;17.60;;;9.80;;
14933;SDS011;7560;51.364;12.384;2024-01-30T20:39:12;17.73;;;9.85;;
14933;SDS011;7560;51.364;12.384;2024-01-30T20:44:14;14.68;;;9.90;;
14933;SDS011;7560;51.364;12.384;2024-01-30T20:49:21;14.88;;;9.98;;
14933;SDS011;7560;51.364;12.384;2024-01-30T20:54:23;15.85;;;9.95;;
14933;SDS011;7560;51.364;12.384;2024-01-30T20:59:24;16.13;;;10.00;;
14933;SDS011;7560;51.364;12.384;2024-01-30T21:04:26;14.00;;;9.20;;
14933;SDS011;7560;51.364;12.384;2024-01-30T21:09:28;16.20;;;10.57;;
14933;SDS011;7560;51.364;12.384;2024-01-30T21:14:30;20.88;;;10.98;;
14933;SDS011;7560;51.364;12.384;2024-01-30T21:19:32;16.67;;;10.88;;
14933;SDS011;7560;51.364;12.384;2024-01-30T21:24:34;17.27;;;10.05;;
14933;SDS011;7560;51.364;12.384;2024-01-30T21:29:35;14.95;;;9.95;;
14933;SDS011;7560;51.364;12.384;2024-01-30T21:34:41;16.00;;;9.75;;
14933;SDS011;7560;51.364;12.384;2024-01-30T21:39:43;16.70;;;9.55;;
14933;SDS011;7560;51.364;12.384;2024-01-30T21:44:45;15.02;;;10.07;;
14933;SDS011;7560;51.364;12.384;2024-01-30T21:49:47;15.70;;;9.75;;
14933;SDS011;7560;51.364;12.384;2024-01-30T21:54:50;13.15;;;9.70;;
14933;SDS011;7560;51.364;12.384;2024-01-30T21:59:51;15.02;;;9.60;;
14933;SDS011;7560;51.364;12.384;2024-01-30T22:04:53;17.98;;;10.20;;
14933;SDS011;7560;51.364;12.384;2024-01-30T22:09:56;14.65;;;9.38;;
14933;SDS011;7560;51.364;12.384;2024-01-30T22:14:58;15.98;;;9.77;;
14933;SDS011;7560;51.364;12.384;2024-01-30T22:19:59;15.73;;;9.68;;
14933;SDS011;7560;51.364;12.384;2024-01-30T22:25:01;13.60;;;8.82;;
14933;SDS011;7560;51.364;12.384;2024-01-30T22:30:04;14.55;;;8.82;;
14933;SDS011;7560;51.364;12.384;2024-01-30T22:35:06;14.27;;;8.60;;
14933;SDS011;7560;51.364;12.384;2024-01-30T22:40:11;11.30;;;7.72;;
14933;SDS011;7560;51.364;12.384;2024-01-30T22:45:13;10.23;;;7.63;;
14933;SDS011;7560;51.364;12.384;2024-01-30T22:50:15;10.88;;;7.93;;
14933;SDS011;7560;51.364;12.384;2024-01-30T22:55:17;12.27;;;8.25;;
14933;SDS011;7560;51.364;12.384;2024-01-30T23:00:19;10.73;;;7.93;;
14933;SDS011;7560;51.364;12.384;2024-01-30T23:05:29;16.25;;;9.10;;
14933;SDS011;7560;51.364;12.384;2024-01-30T23:10:31;13.43;;;8.45;;
14933;SDS011;7560;51.364;12.384;2024-01-30T23:15:33;12.77;;;7.82;;
14933;SDS011;7560;51.364;12.384;2024-01-30T23:20:35;12.13;;;8.15;;
14933;SDS011;7560;51.364;12.384;2024-01-30T23:25:37;12.40;;;8.18;;
14933;SDS011;7560;51.364;12.384;2024-01-30T23:30:39;12.70;;;8.57;;
14933;SDS011;7560;51.364;12.384;2024-01-30T23:35:41;12.15;;;8.05;;
14933;SDS011;7560;51.364;12.384;2024-01-30T23:40:43;14.32;;;8.23;;
14933;SDS011;7560;51.364;12.384;2024-01-30T23:45:45;14.20;;;8.27;;
14933;SDS011;7560;51.364;12.384;2024-01-30T23:50:47;12.73;;;8.30;;
14933;SDS011;7560;51.364;12.384;2024-01-30T23:55:48;13.65;;;8.80;;
